sensor_id;sensor_type;location;lat;lon;timestamp;temperature;humidity
4293;DHT22;2160;51.172;6.808;2023-08-08T04:02:28;15.80;99.90
4293;DHT22;2160;51.172;6.808;2023-08-08T04:04:55;16.00;99.90
4293;DHT22;2160;51.172;6.808;2023-08-08T04:07:22;16.00;99.90
4293;DHT22;2160;51.172;6.808;2023-08-08T04:09:49;15.90;99.90
4293;DHT22;2160;51.172;6.808;2023-08-08T04:12:16;16.10;99.90
4293;DHT22;2160;51.172;6.808;2023-08-08T04:14:43;15.80;99.90
4293;DHT22;2160;51.172;6.808;2023-08-08T04:17:10;15.90;99.90
4293;DHT22;2160;51.172;6.808;2023-08-08T04:19:39;15.70;99.90
4293;DHT22;2160;51.172;6.808;2023-08-08T04:22:05;15.80;99.90
4293;DHT22;2160;51.172;6.808;2023-08-08T04:24:32;15.90;99.90
4293;DHT22;2160;51.172;6.808;2023-08-08T04:26:59;15.80;99.90
4293;DHT22;2160;51.172;6.808;2023-08-08T04:29:26;15.90;99.90
4293;DHT22;2160;51.172;6.808;2023-08-08T04:31:53;16.10;99.90
4293;DHT22;2160;51.172;6.808;2023-08-08T04:34:20;16.00;99.90
4293;DHT22;2160;51.172;6.808;2023-08-08T04:36:48;16.00;99.90
4293;DHT22;2160;51.172;6.808;2023-08-08T04:39:15;16.00;99.90
4293;DHT22;2160;51.172;6.808;2023-08-08T04:41:42;16.00;99.90
4293;DHT22;2160;51.172;6.808;2023-08-08T04:44:09;16.20;99.90
4293;DHT22;2160;51.172;6.808;2023-08-08T04:46:36;16.30;99.90
4293;DHT22;2160;51.172;6.808;2023-08-08T04:49:03;16.30;99.90
4293;DHT22;2160;51.172;6.808;2023-08-08T04:51:30;16.10;99.90
4293;DHT22;2160;51.172;6.808;2023-08-08T04:53:59;16.00;99.90
4293;DHT22;2160;51.172;6.808;2023-08-08T04:56:25;16.00;99.90
4293;DHT22;2160;51.172;6.808;2023-08-08T04:58:53;15.90;99.90
4293;DHT22;2160;51.172;6.808;2023-08-08T05:01:20;16.20;99.90
4293;DHT22;2160;51.172;6.808;2023-08-08T05:03:47;16.10;99.90
4293;DHT22;2160;51.172;6.808;2023-08-08T05:06:15;16.10;99.90
4293;DHT22;2160;51.172;6.808;2023-08-08T05:08:42;16.00;99.90
4293;DHT22;2160;51.172;6.808;2023-08-08T05:11:10;16.00;99.90
4293;DHT22;2160;51.172;6.808;2023-08-08T05:13:37;16.30;99.90
4293;DHT22;2160;51.172;6.808;2023-08-08T05:16:04;16.40;99.90
4293;DHT22;2160;51.172;6.808;2023-08-08T05:18:31;16.20;99.90
4293;DHT22;2160;51.172;6.808;2023-08-08T05:20:58;16.30;99.90
4293;DHT22;2160;51.172;6.808;2023-08-08T05:23:26;16.40;99.90
4293;DHT22;2160;51.172;6.808;2023-08-08T05:25:53;16.30;99.90
4293;DHT22;2160;51.172;6.808;2023-08-08T05:28:21;16.50;99.90
4293;DHT22;2160;51.172;6.808;2023-08-08T05:30:48;16.50;99.90
4293;DHT22;2160;51.172;6.808;2023-08-08T05:33:15;16.60;99.90
4293;DHT22;2160;51.172;6.808;2023-08-08T05:35:42;16.70;99.90
4293;DHT22;2160;51.172;6.808;2023-08-08T05:38:09;16.80;99.90
4293;DHT22;2160;51.172;6.808;2023-08-08T05:40:35;16.90;99.90
4293;DHT22;2160;51.172;6.808;2023-08-08T05:43:03;17.00;99.90
4293;DHT22;2160;51.172;6.808;2023-08-08T05:45:31;17.20;99.90
4293;DHT22;2160;51.172;6.808;2023-08-08T05:47:58;17.20;99.90
4293;DHT22;2160;51.172;6.808;2023-08-08T05:50:26;17.10;99.90
4293;DHT22;2160;51.172;6.808;2023-08-08T05:52:53;17.10;99.90
4293;DHT22;2160;51.172;6.808;2023-08-08T05:55:20;17.20;99.90
4293;DHT22;2160;51.172;6.808;2023-08-08T05:57:47;17.40;99.90
4293;DHT22;2160;51.172;6.808;2023-08-08T06:00:15;17.20;99.90
4293;DHT22;2160;51.172;6.808;2023-08-08T06:02:43;16.80;99.90
4293;DHT22;2160;51.172;6.808;2023-08-08T06:05:11;16.90;99.90
4293;DHT22;2160;51.172;6.808;2023-08-08T06:07:38;17.10;99.90
4293;DHT22;2160;51.172;6.808;2023-08-08T06:10:06;16.90;99.90
4293;DHT22;2160;51.172;6.808;2023-08-08T06:12:33;17.00;99.90
4293;DHT22;2160;51.172;6.808;2023-08-08T06:15:00;17.00;99.90
4293;DHT22;2160;51.172;6.808;2023-08-08T06:17:27;16.90;99.90
4293;DHT22;2160;51.172;6.808;2023-08-08T06:19:56;16.80;99.90
4293;DHT22;2160;51.172;6.808;2023-08-08T06:22:23;16.90;99.90
4293;DHT22;2160;51.172;6.808;2023-08-08T06:24:50;17.10;99.90
4293;DHT22;2160;51.172;6.808;2023-08-08T06:27:17;17.40;99.90
4293;DHT22;2160;51.172;6.808;2023-08-08T06:29:44;17.50;99.90
4293;DHT22;2160;51.172;6.808;2023-08-08T06:32:11;17.20;99.90
4293;DHT22;2160;51.172;6.808;2023-08-08T06:34:38;17.20;99.90
4293;DHT22;2160;51.172;6.808;2023-08-08T06:37:06;17.10;99.90
4293;DHT22;2160;51.172;6.808;2023-08-08T06:39:33;17.30;99.90
4293;DHT22;2160;51.172;6.808;2023-08-08T06:42:00;17.40;99.90
4293;DHT22;2160;51.172;6.808;2023-08-08T06:44:42;17.40;99.90
4293;DHT22;2160;51.172;6.808;2023-08-08T06:47:09;17.20;99.90
4293;DHT22;2160;51.172;6.808;2023-08-08T06:49:36;17.20;99.90
4293;DHT22;2160;51.172;6.808;2023-08-08T06:52:05;17.20;99.90
4293;DHT22;2160;51.172;6.808;2023-08-08T06:54:33;17.50;99.90
4293;DHT22;2160;51.172;6.808;2023-08-08T06:57:00;17.70;99.90
4293;DHT22;2160;51.172;6.808;2023-08-08T06:59:28;17.80;99.90
4293;DHT22;2160;51.172;6.808;2023-08-08T07:01:55;17.70;99.90
4293;DHT22;2160;51.172;6.808;2023-08-08T07:04:23;17.70;99.90
4293;DHT22;2160;51.172;6.808;2023-08-08T07:06:50;17.70;99.90
4293;DHT22;2160;51.172;6.808;2023-08-08T07:09:18;17.90;99.90
4293;DHT22;2160;51.172;6.808;2023-08-08T07:11:45;17.90;99.90
4293;DHT22;2160;51.172;6.808;2023-08-08T07:14:12;18.10;99.90
4293;DHT22;2160;51.172;6.808;2023-08-08T07:16:39;18.40;99.90
4293;DHT22;2160;51.172;6.808;2023-08-08T07:19:06;18.60;99.90
4293;DHT22;2160;51.172;6.808;2023-08-08T07:21:33;18.80;99.90
4293;DHT22;2160;51.172;6.808;2023-08-08T07:24:00;18.80;99.90
4293;DHT22;2160;51.172;6.808;2023-08-08T07:26:30;18.90;99.90
4293;DHT22;2160;51.172;6.808;2023-08-08T07:28:56;19.00;99.90
4293;DHT22;2160;51.172;6.808;2023-08-08T07:31:23;19.30;99.90
4293;DHT22;2160;51.172;6.808;2023-08-08T07:33:50;19.00;99.90
4293;DHT22;2160;51.172;6.808;2023-08-08T07:36:17;19.00;99.90
4293;DHT22;2160;51.172;6.808;2023-08-08T07:38:44;19.00;99.90
4293;DHT22;2160;51.172;6.808;2023-08-08T07:41:11;18.80;99.90
4293;DHT22;2160;51.172;6.808;2023-08-08T07:43:40;18.80;99.90
4293;DHT22;2160;51.172;6.808;2023-08-08T07:46:07;18.60;99.90
4293;DHT22;2160;51.172;6.808;2023-08-08T07:48:34;18.70;99.90
4293;DHT22;2160;51.172;6.808;2023-08-08T07:51:01;18.70;99.90
4293;DHT22;2160;51.172;6.808;2023-08-08T07:53:28;18.70;99.90
4293;DHT22;2160;51.172;6.808;2023-08-08T07:55:55;18.80;99.90
4293;DHT22;2160;51.172;6.808;2023-08-08T07:58:22;19.00;99.90
4293;DHT22;2160;51.172;6.808;2023-08-08T08:00:53;18.80;99.90
4293;DHT22;2160;51.172;6.808;2023-08-08T08:03:20;18.70;99.90
4293;DHT22;2160;51.172;6.808;2023-08-08T08:05:47;18.90;99.90
4293;DHT22;2160;51.172;6.808;2023-08-08T08:08:14;18.70;99.90
4293;DHT22;2160;51.172;6.808;2023-08-08T08:10:41;18.70;99.90
4293;DHT22;2160;51.172;6.808;2023-08-08T08:13:08;18.50;99.90
4293;DHT22;2160;51.172;6.808;2023-08-08T08:15:37;18.40;99.90
4293;DHT22;2160;51.172;6.808;2023-08-08T08:18:06;18.60;99.90
4293;DHT22;2160;51.172;6.808;2023-08-08T08:20:33;18.80;99.90
4293;DHT22;2160;51.172;6.808;2023-08-08T08:22:59;18.90;99.90
4293;DHT22;2160;51.172;6.808;2023-08-08T08:25:26;19.10;99.90
4293;DHT22;2160;51.172;6.808;2023-08-08T08:27:53;19.00;99.90
4293;DHT22;2160;51.172;6.808;2023-08-08T08:30:20;19.00;99.90
4293;DHT22;2160;51.172;6.808;2023-08-08T08:32:49;19.20;99.90
4293;DHT22;2160;51.172;6.808;2023-08-08T08:35:18;18.90;99.90
4293;DHT22;2160;51.172;6.808;2023-08-08T08:37:46;18.90;99.90
4293;DHT22;2160;51.172;6.808;2023-08-08T08:40:13;18.80;99.90
4293;DHT22;2160;51.172;6.808;2023-08-08T08:42:40;18.70;99.90
4293;DHT22;2160;51.172;6.808;2023-08-08T08:45:09;18.70;99.90
4293;DHT22;2160;51.172;6.808;2023-08-08T08:47:36;18.80;99.90
4293;DHT22;2160;51.172;6.808;2023-08-08T08:50:04;18.80;99.90
4293;DHT22;2160;51.172;6.808;2023-08-08T08:52:33;18.90;99.90
4293;DHT22;2160;51.172;6.808;2023-08-08T08:55:01;18.80;99.90
4293;DHT22;2160;51.172;6.808;2023-08-08T08:57:29;18.70;99.90
4293;DHT22;2160;51.172;6.808;2023-08-08T08:59:56;18.50;99.90
4293;DHT22;2160;51.172;6.808;2023-08-08T09:02:23;18.50;99.90
4293;DHT22;2160;51.172;6.808;2023-08-08T09:04:51;18.50;99.90
4293;DHT22;2160;51.172;6.808;2023-08-08T09:07:20;18.40;99.90
4293;DHT22;2160;51.172;6.808;2023-08-08T09:09:51;18.50;99.90
4293;DHT22;2160;51.172;6.808;2023-08-08T09:12:18;18.70;99.90
4293;DHT22;2160;51.172;6.808;2023-08-08T09:14:45;19.00;99.90
4293;DHT22;2160;51.172;6.808;2023-08-08T09:17:14;19.10;99.90
4293;DHT22;2160;51.172;6.808;2023-08-08T09:19:42;19.30;99.90
4293;DHT22;2160;51.172;6.808;2023-08-08T09:22:11;19.30;99.90
4293;DHT22;2160;51.172;6.808;2023-08-08T09:24:39;19.50;99.90
4293;DHT22;2160;51.172;6.808;2023-08-08T09:27:08;19.50;99.90
4293;DHT22;2160;51.172;6.808;2023-08-08T09:29:36;19.60;99.90
4293;DHT22;2160;51.172;6.808;2023-08-08T09:32:04;19.20;99.90
4293;DHT22;2160;51.172;6.808;2023-08-08T09:34:31;19.10;99.90
4293;DHT22;2160;51.172;6.808;2023-08-08T09:36:58;19.40;99.90
4293;DHT22;2160;51.172;6.808;2023-08-08T09:39:26;19.50;99.90
4293;DHT22;2160;51.172;6.808;2023-08-08T09:41:53;19.60;99.90
4293;DHT22;2160;51.172;6.808;2023-08-08T09:44:24;19.90;99.90
4293;DHT22;2160;51.172;6.808;2023-08-08T09:46:55;19.90;99.90
4293;DHT22;2160;51.172;6.808;2023-08-08T09:49:22;20.00;99.90
4293;DHT22;2160;51.172;6.808;2023-08-08T09:51:49;20.00;99.90
4293;DHT22;2160;51.172;6.808;2023-08-08T09:54:17;20.10;99.90
4293;DHT22;2160;51.172;6.808;2023-08-08T09:56:44;19.80;99.90
4293;DHT22;2160;51.172;6.808;2023-08-08T09:59:11;20.10;99.90
4293;DHT22;2160;51.172;6.808;2023-08-08T10:01:41;20.50;99.90
4293;DHT22;2160;51.172;6.808;2023-08-08T10:04:08;20.70;99.90
4293;DHT22;2160;51.172;6.808;2023-08-08T10:06:35;20.90;99.90
4293;DHT22;2160;51.172;6.808;2023-08-08T10:09:03;21.00;99.90
4293;DHT22;2160;51.172;6.808;2023-08-08T10:11:30;20.40;99.90
4293;DHT22;2160;51.172;6.808;2023-08-08T10:14:00;20.30;99.90
4293;DHT22;2160;51.172;6.808;2023-08-08T10:16:28;20.30;99.90
4293;DHT22;2160;51.172;6.808;2023-08-08T10:19:01;20.20;99.90
4293;DHT22;2160;51.172;6.808;2023-08-08T10:21:33;20.10;99.90
4293;DHT22;2160;51.172;6.808;2023-08-08T10:24:04;19.80;99.90
4293;DHT22;2160;51.172;6.808;2023-08-08T10:26:32;19.60;99.90
4293;DHT22;2160;51.172;6.808;2023-08-08T10:29:01;19.50;99.90
4293;DHT22;2160;51.172;6.808;2023-08-08T10:31:33;19.50;99.90
4293;DHT22;2160;51.172;6.808;2023-08-08T10:34:04;19.50;99.90
4293;DHT22;2160;51.172;6.808;2023-08-08T10:36:48;19.50;99.90
4293;DHT22;2160;51.172;6.808;2023-08-08T10:39:16;19.50;99.90
4293;DHT22;2160;51.172;6.808;2023-08-08T10:41:48;19.50;99.90
4293;DHT22;2160;51.172;6.808;2023-08-08T10:44:22;19.40;99.90
4293;DHT22;2160;51.172;6.808;2023-08-08T10:46:51;19.60;99.90
4293;DHT22;2160;51.172;6.808;2023-08-08T10:49:19;19.80;99.90
4293;DHT22;2160;51.172;6.808;2023-08-08T10:51:48;20.20;99.90
4293;DHT22;2160;51.172;6.808;2023-08-08T10:54:16;20.10;99.90
4293;DHT22;2160;51.172;6.808;2023-08-08T10:56:48;20.40;99.90
4293;DHT22;2160;51.172;6.808;2023-08-08T10:59:18;20.60;99.90
4293;DHT22;2160;51.172;6.808;2023-08-08T11:01:46;20.90;99.90
4293;DHT22;2160;51.172;6.808;2023-08-08T11:04:16;21.00;99.90
4293;DHT22;2160;51.172;6.808;2023-08-08T11:06:46;21.00;99.90
4293;DHT22;2160;51.172;6.808;2023-08-08T11:09:16;21.20;99.90
4293;DHT22;2160;51.172;6.808;2023-08-08T11:11:44;21.40;99.90
4293;DHT22;2160;51.172;6.808;2023-08-08T11:14:13;21.10;99.90
4293;DHT22;2160;51.172;6.808;2023-08-08T11:16:40;21.20;99.90
4293;DHT22;2160;51.172;6.808;2023-08-08T11:19:08;21.60;99.90
4293;DHT22;2160;51.172;6.808;2023-08-08T11:21:35;21.60;99.90
4293;DHT22;2160;51.172;6.808;2023-08-08T11:24:06;21.70;99.90
4293;DHT22;2160;51.172;6.808;2023-08-08T11:26:34;21.80;99.90
4293;DHT22;2160;51.172;6.808;2023-08-08T11:29:04;21.60;99.90
4293;DHT22;2160;51.172;6.808;2023-08-08T11:31:32;21.10;99.90
4293;DHT22;2160;51.172;6.808;2023-08-08T11:34:00;20.90;99.90
4293;DHT22;2160;51.172;6.808;2023-08-08T11:36:29;20.80;99.90
4293;DHT22;2160;51.172;6.808;2023-08-08T11:38:57;20.70;99.90
4293;DHT22;2160;51.172;6.808;2023-08-08T11:41:26;20.40;99.90
4293;DHT22;2160;51.172;6.808;2023-08-08T11:43:53;20.40;99.90
4293;DHT22;2160;51.172;6.808;2023-08-08T11:46:23;20.30;99.90
4293;DHT22;2160;51.172;6.808;2023-08-08T11:48:51;20.60;99.90
4293;DHT22;2160;51.172;6.808;2023-08-08T11:51:18;20.10;99.90
4293;DHT22;2160;51.172;6.808;2023-08-08T11:53:48;19.90;99.90
4293;DHT22;2160;51.172;6.808;2023-08-08T11:56:17;19.90;99.90
4293;DHT22;2160;51.172;6.808;2023-08-08T11:58:46;19.70;99.90
4293;DHT22;2160;51.172;6.808;2023-08-08T12:01:13;19.50;99.90
4293;DHT22;2160;51.172;6.808;2023-08-08T12:03:40;19.90;99.90
4293;DHT22;2160;51.172;6.808;2023-08-08T12:06:14;19.70;99.90
4293;DHT22;2160;51.172;6.808;2023-08-08T12:08:42;19.80;99.90
4293;DHT22;2160;51.172;6.808;2023-08-08T12:11:10;20.00;99.90
4293;DHT22;2160;51.172;6.808;2023-08-08T12:13:39;20.00;99.90
4293;DHT22;2160;51.172;6.808;2023-08-08T12:16:08;20.00;99.90
4293;DHT22;2160;51.172;6.808;2023-08-08T12:18:36;19.90;99.90
4293;DHT22;2160;51.172;6.808;2023-08-08T12:21:04;19.90;99.90
4293;DHT22;2160;51.172;6.808;2023-08-08T12:23:31;19.70;99.90
4293;DHT22;2160;51.172;6.808;2023-08-08T12:25:59;19.30;99.90
4293;DHT22;2160;51.172;6.808;2023-08-08T12:28:26;19.00;99.90
4293;DHT22;2160;51.172;6.808;2023-08-08T12:30:53;18.90;99.90
4293;DHT22;2160;51.172;6.808;2023-08-08T12:33:21;19.20;99.90
4293;DHT22;2160;51.172;6.808;2023-08-08T12:35:48;19.30;99.90
4293;DHT22;2160;51.172;6.808;2023-08-08T12:38:15;19.70;99.90
4293;DHT22;2160;51.172;6.808;2023-08-08T12:40:42;19.70;99.90
4293;DHT22;2160;51.172;6.808;2023-08-08T12:43:10;20.00;99.90
4293;DHT22;2160;51.172;6.808;2023-08-08T12:45:39;20.00;99.90
4293;DHT22;2160;51.172;6.808;2023-08-08T12:48:06;20.20;99.90
4293;DHT22;2160;51.172;6.808;2023-08-08T12:50:35;20.60;99.90
4293;DHT22;2160;51.172;6.808;2023-08-08T12:53:01;21.00;99.90
4293;DHT22;2160;51.172;6.808;2023-08-08T12:55:29;21.30;99.90
4293;DHT22;2160;51.172;6.808;2023-08-08T12:57:56;21.60;99.90
4293;DHT22;2160;51.172;6.808;2023-08-08T13:00:23;21.80;99.90
4293;DHT22;2160;51.172;6.808;2023-08-08T13:02:50;21.30;99.90
4293;DHT22;2160;51.172;6.808;2023-08-08T13:05:17;21.00;99.90
4293;DHT22;2160;51.172;6.808;2023-08-08T13:07:45;20.70;99.90
4293;DHT22;2160;51.172;6.808;2023-08-08T13:10:13;20.80;99.90
4293;DHT22;2160;51.172;6.808;2023-08-08T13:12:40;21.00;99.90
4293;DHT22;2160;51.172;6.808;2023-08-08T13:15:08;20.80;99.90
4293;DHT22;2160;51.172;6.808;2023-08-08T13:17:35;20.80;99.90
4293;DHT22;2160;51.172;6.808;2023-08-08T13:20:03;21.40;99.90
4293;DHT22;2160;51.172;6.808;2023-08-08T13:22:31;22.10;99.90
4293;DHT22;2160;51.172;6.808;2023-08-08T13:24:59;22.20;99.90
4293;DHT22;2160;51.172;6.808;2023-08-08T13:27:26;22.10;99.90
4293;DHT22;2160;51.172;6.808;2023-08-08T13:29:53;21.80;99.90
4293;DHT22;2160;51.172;6.808;2023-08-08T13:32:20;21.50;99.90
4293;DHT22;2160;51.172;6.808;2023-08-08T13:34:47;21.40;99.90
4293;DHT22;2160;51.172;6.808;2023-08-08T13:37:14;21.10;99.90
4293;DHT22;2160;51.172;6.808;2023-08-08T13:39:41;20.90;99.90
4293;DHT22;2160;51.172;6.808;2023-08-08T13:42:10;20.70;99.90
4293;DHT22;2160;51.172;6.808;2023-08-08T13:44:37;20.60;99.90
4293;DHT22;2160;51.172;6.808;2023-08-08T13:47:04;20.60;99.90
4293;DHT22;2160;51.172;6.808;2023-08-08T13:49:31;20.90;99.90
4293;DHT22;2160;51.172;6.808;2023-08-08T13:51:58;21.40;99.90
4293;DHT22;2160;51.172;6.808;2023-08-08T13:54:25;22.10;99.90
4293;DHT22;2160;51.172;6.808;2023-08-08T13:56:52;23.00;99.90
4293;DHT22;2160;51.172;6.808;2023-08-08T13:59:20;24.30;99.90
4293;DHT22;2160;51.172;6.808;2023-08-08T14:01:47;25.30;99.90
4293;DHT22;2160;51.172;6.808;2023-08-08T14:04:14;26.10;99.90
4293;DHT22;2160;51.172;6.808;2023-08-08T14:06:41;25.10;99.90
4293;DHT22;2160;51.172;6.808;2023-08-08T14:09:08;24.50;99.90
4293;DHT22;2160;51.172;6.808;2023-08-08T14:11:34;23.90;99.90
4293;DHT22;2160;51.172;6.808;2023-08-08T14:14:01;23.60;99.90
4293;DHT22;2160;51.172;6.808;2023-08-08T14:16:30;24.20;99.90
4293;DHT22;2160;51.172;6.808;2023-08-08T14:18:58;25.20;99.90
4293;DHT22;2160;51.172;6.808;2023-08-08T14:21:25;26.70;99.50
4293;DHT22;2160;51.172;6.808;2023-08-08T14:23:51;28.00;93.80
4293;DHT22;2160;51.172;6.808;2023-08-08T14:26:18;29.10;92.10
4293;DHT22;2160;51.172;6.808;2023-08-08T14:28:45;29.00;84.70
4293;DHT22;2160;51.172;6.808;2023-08-08T14:31:12;29.60;81.40
4293;DHT22;2160;51.172;6.808;2023-08-08T14:33:41;30.10;82.40
4293;DHT22;2160;51.172;6.808;2023-08-08T14:36:08;30.10;78.30
4293;DHT22;2160;51.172;6.808;2023-08-08T14:38:35;30.50;77.80
4293;DHT22;2160;51.172;6.808;2023-08-08T14:41:02;31.70;72.10
4293;DHT22;2160;51.172;6.808;2023-08-08T14:43:30;31.40;68.30
4293;DHT22;2160;51.172;6.808;2023-08-08T14:45:57;30.00;67.50
4293;DHT22;2160;51.172;6.808;2023-08-08T14:48:24;28.10;73.40
4293;DHT22;2160;51.172;6.808;2023-08-08T14:50:52;28.20;76.70
4293;DHT22;2160;51.172;6.808;2023-08-08T14:53:19;29.30;74.50
4293;DHT22;2160;51.172;6.808;2023-08-08T14:55:46;29.10;68.60
4293;DHT22;2160;51.172;6.808;2023-08-08T14:58:14;28.40;70.80
4293;DHT22;2160;51.172;6.808;2023-08-08T15:00:41;26.50;73.00
4293;DHT22;2160;51.172;6.808;2023-08-08T15:03:09;25.90;78.30
4293;DHT22;2160;51.172;6.808;2023-08-08T15:05:36;25.10;80.00
4293;DHT22;2160;51.172;6.808;2023-08-08T15:08:05;24.20;83.90
4293;DHT22;2160;51.172;6.808;2023-08-08T15:10:32;24.00;84.90
4293;DHT22;2160;51.172;6.808;2023-08-08T15:12:59;25.40;87.30
4293;DHT22;2160;51.172;6.808;2023-08-08T15:15:26;27.40;81.70
4293;DHT22;2160;51.172;6.808;2023-08-08T15:17:55;28.70;70.00
4293;DHT22;2160;51.172;6.808;2023-08-08T15:20:22;28.70;65.90
4293;DHT22;2160;51.172;6.808;2023-08-08T15:22:49;27.40;66.30
4293;DHT22;2160;51.172;6.808;2023-08-08T15:25:18;25.90;69.70
4293;DHT22;2160;51.172;6.808;2023-08-08T15:27:45;25.20;74.20
4293;DHT22;2160;51.172;6.808;2023-08-08T15:30:11;25.10;75.70
4293;DHT22;2160;51.172;6.808;2023-08-08T15:32:38;25.60;77.20
4293;DHT22;2160;51.172;6.808;2023-08-08T15:35:06;25.70;74.80
4293;DHT22;2160;51.172;6.808;2023-08-08T15:37:34;25.50;74.80
4293;DHT22;2160;51.172;6.808;2023-08-08T15:40:03;26.10;78.30
4293;DHT22;2160;51.172;6.808;2023-08-08T15:42:32;26.90;75.30
4293;DHT22;2160;51.172;6.808;2023-08-08T15:44:59;27.00;72.30
4293;DHT22;2160;51.172;6.808;2023-08-08T15:47:26;27.50;72.30
4293;DHT22;2160;51.172;6.808;2023-08-08T15:49:53;28.10;69.10
4293;DHT22;2160;51.172;6.808;2023-08-08T15:52:20;28.90;68.20
4293;DHT22;2160;51.172;6.808;2023-08-08T15:54:47;29.90;67.50
4293;DHT22;2160;51.172;6.808;2023-08-08T15:57:14;30.10;62.20
4293;DHT22;2160;51.172;6.808;2023-08-08T15:59:43;30.00;59.60
4293;DHT22;2160;51.172;6.808;2023-08-08T16:02:10;28.50;59.00
4293;DHT22;2160;51.172;6.808;2023-08-08T16:04:37;27.20;62.60
4293;DHT22;2160;51.172;6.808;2023-08-08T16:07:04;26.00;67.80
4293;DHT22;2160;51.172;6.808;2023-08-08T16:09:31;25.40;69.20
4293;DHT22;2160;51.172;6.808;2023-08-08T16:11:58;24.90;72.70
4293;DHT22;2160;51.172;6.808;2023-08-08T16:14:26;24.80;73.90
4293;DHT22;2160;51.172;6.808;2023-08-08T16:16:55;24.70;75.50
4293;DHT22;2160;51.172;6.808;2023-08-08T16:19:22;24.50;76.30
4293;DHT22;2160;51.172;6.808;2023-08-08T16:21:49;24.40;77.40
4293;DHT22;2160;51.172;6.808;2023-08-08T16:24:15;24.20;78.60
4293;DHT22;2160;51.172;6.808;2023-08-08T16:26:43;24.40;79.60
4293;DHT22;2160;51.172;6.808;2023-08-08T16:29:10;24.50;80.90
4293;DHT22;2160;51.172;6.808;2023-08-08T16:31:38;24.50;80.10
4293;DHT22;2160;51.172;6.808;2023-08-08T16:34:06;24.40;79.20
4293;DHT22;2160;51.172;6.808;2023-08-08T16:36:34;24.20;79.30
4293;DHT22;2160;51.172;6.808;2023-08-08T16:39:01;23.60;78.60
4293;DHT22;2160;51.172;6.808;2023-08-08T16:41:28;23.40;80.30
4293;DHT22;2160;51.172;6.808;2023-08-08T16:44:01;23.30;80.80
4293;DHT22;2160;51.172;6.808;2023-08-08T16:46:28;23.20;82.30
4293;DHT22;2160;51.172;6.808;2023-08-08T16:48:55;23.00;83.80
4293;DHT22;2160;51.172;6.808;2023-08-08T16:51:23;23.10;83.40
4293;DHT22;2160;51.172;6.808;2023-08-08T16:53:50;23.10;84.30
4293;DHT22;2160;51.172;6.808;2023-08-08T16:56:18;23.00;85.40
4293;DHT22;2160;51.172;6.808;2023-08-08T16:58:45;22.80;85.50
4293;DHT22;2160;51.172;6.808;2023-08-08T17:01:12;22.70;86.90
4293;DHT22;2160;51.172;6.808;2023-08-08T17:03:39;22.60;86.90
4293;DHT22;2160;51.172;6.808;2023-08-08T17:06:06;22.40;87.00
4293;DHT22;2160;51.172;6.808;2023-08-08T17:08:34;22.40;89.10
4293;DHT22;2160;51.172;6.808;2023-08-08T17:11:02;22.30;90.30
4293;DHT22;2160;51.172;6.808;2023-08-08T17:13:29;22.10;90.10
4293;DHT22;2160;51.172;6.808;2023-08-08T17:15:56;21.90;90.10
4293;DHT22;2160;51.172;6.808;2023-08-08T17:18:23;21.90;91.10
4293;DHT22;2160;51.172;6.808;2023-08-08T17:20:50;21.90;91.60
4293;DHT22;2160;51.172;6.808;2023-08-08T17:23:17;22.00;92.00
4293;DHT22;2160;51.172;6.808;2023-08-08T17:25:46;22.10;92.50
4293;DHT22;2160;51.172;6.808;2023-08-08T17:28:12;22.20;92.30
4293;DHT22;2160;51.172;6.808;2023-08-08T17:30:39;22.10;92.70
4293;DHT22;2160;51.172;6.808;2023-08-08T17:33:06;22.10;93.00
4293;DHT22;2160;51.172;6.808;2023-08-08T17:35:33;22.00;93.50
4293;DHT22;2160;51.172;6.808;2023-08-08T17:38:01;21.80;93.30
4293;DHT22;2160;51.172;6.808;2023-08-08T17:40:28;21.60;93.40
4293;DHT22;2160;51.172;6.808;2023-08-08T17:42:56;21.40;93.30
4293;DHT22;2160;51.172;6.808;2023-08-08T17:45:23;21.40;94.60
4293;DHT22;2160;51.172;6.808;2023-08-08T17:47:50;21.30;95.10
4293;DHT22;2160;51.172;6.808;2023-08-08T17:50:18;21.30;95.50
4293;DHT22;2160;51.172;6.808;2023-08-08T17:52:45;21.40;95.70
4293;DHT22;2160;51.172;6.808;2023-08-08T17:55:12;21.30;95.40
4293;DHT22;2160;51.172;6.808;2023-08-08T17:57:39;21.50;95.80
4293;DHT22;2160;51.172;6.808;2023-08-08T18:00:09;21.60;96.20
4293;DHT22;2160;51.172;6.808;2023-08-08T18:02:36;21.60;97.00
4293;DHT22;2160;51.172;6.808;2023-08-08T18:05:05;21.60;97.60
4293;DHT22;2160;51.172;6.808;2023-08-08T18:07:32;21.50;99.10
4293;DHT22;2160;51.172;6.808;2023-08-08T18:09:59;21.40;99.90
4293;DHT22;2160;51.172;6.808;2023-08-08T18:12:27;21.40;99.90
4293;DHT22;2160;51.172;6.808;2023-08-08T18:14:54;21.40;99.90
4293;DHT22;2160;51.172;6.808;2023-08-08T18:17:22;21.40;99.90
4293;DHT22;2160;51.172;6.808;2023-08-08T18:19:50;21.30;99.90
4293;DHT22;2160;51.172;6.808;2023-08-08T18:22:17;21.20;99.90
4293;DHT22;2160;51.172;6.808;2023-08-08T18:24:44;21.30;99.90
4293;DHT22;2160;51.172;6.808;2023-08-08T18:27:11;21.30;99.90
4293;DHT22;2160;51.172;6.808;2023-08-08T18:29:38;21.40;99.90
4293;DHT22;2160;51.172;6.808;2023-08-08T18:32:05;21.40;99.90
4293;DHT22;2160;51.172;6.808;2023-08-08T18:34:34;21.40;99.90
4293;DHT22;2160;51.172;6.808;2023-08-08T18:37:01;21.40;99.90
4293;DHT22;2160;51.172;6.808;2023-08-08T18:39:28;21.30;99.90
4293;DHT22;2160;51.172;6.808;2023-08-08T18:41:55;21.20;99.90
4293;DHT22;2160;51.172;6.808;2023-08-08T18:44:22;21.10;99.90
4293;DHT22;2160;51.172;6.808;2023-08-08T18:46:49;20.90;99.90
4293;DHT22;2160;51.172;6.808;2023-08-08T18:49:16;20.80;99.90
4293;DHT22;2160;51.172;6.808;2023-08-08T18:51:44;20.70;99.90
4293;DHT22;2160;51.172;6.808;2023-08-08T18:54:11;20.60;99.90
4293;DHT22;2160;51.172;6.808;2023-08-08T18:56:39;20.70;99.90
4293;DHT22;2160;51.172;6.808;2023-08-08T18:59:06;20.50;99.90
4293;DHT22;2160;51.172;6.808;2023-08-08T19:01:34;20.20;99.90
4293;DHT22;2160;51.172;6.808;2023-08-08T19:04:01;20.20;99.90
4293;DHT22;2160;51.172;6.808;2023-08-08T19:06:28;20.20;99.90
4293;DHT22;2160;51.172;6.808;2023-08-08T19:08:56;20.10;99.90
4293;DHT22;2160;51.172;6.808;2023-08-08T19:11:23;20.10;99.90
4293;DHT22;2160;51.172;6.808;2023-08-08T19:13:50;20.00;99.90
4293;DHT22;2160;51.172;6.808;2023-08-08T19:16:17;19.90;99.90
4293;DHT22;2160;51.172;6.808;2023-08-08T19:18:44;20.00;99.90
4293;DHT22;2160;51.172;6.808;2023-08-08T19:21:11;20.00;99.90
4293;DHT22;2160;51.172;6.808;2023-08-08T19:23:38;20.20;99.90
4293;DHT22;2160;51.172;6.808;2023-08-08T19:26:08;20.10;99.90
4293;DHT22;2160;51.172;6.808;2023-08-08T19:28:35;20.10;99.90
4293;DHT22;2160;51.172;6.808;2023-08-08T19:31:02;20.30;99.90
4293;DHT22;2160;51.172;6.808;2023-08-08T19:33:29;20.30;99.90
4293;DHT22;2160;51.172;6.808;2023-08-08T19:35:56;20.30;99.90
4293;DHT22;2160;51.172;6.808;2023-08-08T19:38:25;20.40;99.90
4293;DHT22;2160;51.172;6.808;2023-08-08T19:40:52;20.30;99.90
4293;DHT22;2160;51.172;6.808;2023-08-08T19:43:21;20.20;99.90
4293;DHT22;2160;51.172;6.808;2023-08-08T19:45:48;19.60;99.90
4293;DHT22;2160;51.172;6.808;2023-08-08T19:48:29;19.10;99.90
4293;DHT22;2160;51.172;6.808;2023-08-08T19:50:56;18.90;99.90
4293;DHT22;2160;51.172;6.808;2023-08-08T19:53:23;18.80;99.90
4293;DHT22;2160;51.172;6.808;2023-08-08T19:55:50;18.90;99.90
4293;DHT22;2160;51.172;6.808;2023-08-08T19:58:18;18.90;99.90
4293;DHT22;2160;51.172;6.808;2023-08-08T20:00:47;18.90;99.90
4293;DHT22;2160;51.172;6.808;2023-08-08T20:03:13;18.90;99.90
4293;DHT22;2160;51.172;6.808;2023-08-08T20:05:41;19.00;99.90